Strona główna
METAR-TAF:

METAR-TAF

Lotnisko :

Area_Regional_Airport

South Haven, Michigan, Stany Zjednoczone

Szerokość geograficzna: 42-21-03N, Długość geograficzna: 086-15-22W, wysokość: 203 m

Aktualna obserwacja pogody

Raport powstał 13 minut temu, godzina 06:35 UTC
Cisza
Temperatura 21°C
Wilgotność 94%
Ciśnienie 1013 hPa
Widzialność: 16.1 km
bezchmurnie

METAR: KLWA 280635Z AUTO 00000KT 10SM CLR 21/20 A2992 RMK AO2 T02070197

czas: 02:48 (06:48 UTC)


TAF: brakujący

Obserwacja i prognoza pogody dla ponad 4000 lotnisk (raport METAR i TAF).

Dostępne stacje oznaczono żółtymi i czerwonymi punktami na mapie.

Najedź kursorem aby zobaczyć nazwę stacji.

Kliknij aby zobaczyć obserwacje i prognozy pogody.

Aby zmienić mapę: kliknij na zielony przycisk z czarnym krzyżykiem, aby powiększyć; na zielony przycisk z myślnikiem, aby pomniejszyć; na zielone strzałki, aby przejść do map sąsiednich.


METAR-TAF: